x

Buoy A01 - Mass. Bay/stellwagen (44029) Wave Buoy

12:04 - Mon 21st Apr 2014 All times are EDT. -4 hours from GMT.

  • Sig Wave height 2.3ft
  • Peak Period 8s
  • Wind
    13mph, 16mph gusts
  • Sea Temp 42°f
  • Aire Temp 41°f
  • Sea Pressure 1026.5mb
  • Buoy A01 - Mass. Bay/stellwagen
  • Buoy A01 - Mass. Bay/stellwagen

More Historic Weather Station data

Upgrade to MSW Pro to gain access to the past 30 days of data for over 8000 Wavebouys and Weather Stations around the globe.

Join Pro

Comparision Forecast

View Surf forecast
   
lun 04/21 12:04 2.5ft 8s 13 16 mph 1026.5mb 42f 41f
dom 04/20 11:04 2.5ft 8s 11 13 mph 1027.3mb 41f 41f
10:04 2.5ft 8s 13 16 mph 1027.9mb 42f 41f
9:04 2.5ft 8s 16
mph
1028.3mb 43f 41f
8:04 2.5ft 6s 13 18 mph 1028.6mb 42f 41f
7:04 2.5ft 8s 9 11 mph 1029mb 43f 42f
6:04 2.5ft 8s 7 9 mph 1029.5mb 43f 42f
5:04 2.5ft 8s 4 7 mph 1029.9mb 43f 42f
4:04 3ft 11s 4
mph
1030.7mb 44f 42f
3:04 3ft 8s 2
mph
1031.1mb 43f 41f
2:04 3ft 8s 2 4 mph 1031.5mb 43f 41f
1:04 3.5ft 8s 4
mph
1031.8mb 43f 42f
12:04 3ft 8s 4 7 mph 1032.4mb 42f 42f
11:04 2.5ft 8s 9 11 mph 1032.3mb 42f 41f
10:04 2.5ft 8s 9
mph
1032.7mb 42f 43f
9:04 2.5ft 8s 9 11 mph 1032.5mb 41f 43f
8:04 4ft 11s 11 13 mph 1031.9mb 41f 42f
7:04 4ft 8s 11 13 mph 1031.3mb 41f 41f
6:04 3ft 11s 11 13 mph 1030.5mb 41f 41f
5:04 3ft 11s 7 9 mph 1029.2mb 40f 41f
4:04 3.5ft 11s 9
mph
1029.1mb 40f 41f
3:04 3ft 11s 7 9 mph 1028.9mb 41f 41f
2:04 3.5ft 8s 9 11 mph 1029mb 41f 42f
1:04 4ft 11s 7 9 mph 1028.6mb 41f 42f
12:04 4.5ft 8s 11 13 mph 1028.1mb 41f 44f
sáb 04/19 11:04 3.5ft 11s 11 13 mph 1027.4mb 41f 44f
10:04 3.5ft 8s 11 13 mph 1027.4mb 41f 45f
9:04 5ft 11s 18 27 mph 1026.5mb 42f 46f
8:04 4ft 8s 22 27 mph 1024.8mb 42f 47f
7:04  -   -  16 20 mph 1023.5mb 42f 46f
6:04 5ft 11s 16 20 mph 1022.6mb 42f 47f
5:04 5ft 11s 16 18 mph 1021.9mb 41f 48f
4:04 5ft 11s 11 13 mph 1021.1mb 41f 49f
3:04 5ft 11s 16 20 mph 1020.5mb 40f 50f
2:04 4.5ft 8s 18 20 mph 1020.6mb 40f 49f
1:04 5.5ft 11s 16 20 mph 1020.8mb 40f 49f
12:04 5ft 8s 16 20 mph 1020.4mb 40f 49f
11:04 5ft 11s 16
mph
1020.7mb 40f 47f
10:04 5ft 11s 9 11 mph 1020.8mb 40f 43f
9:04 5ft 8s 9 11 mph 1020.5mb 40f 41f
8:04 4.5ft 11s 11 13 mph 1020.5mb 40f 40f
7:04 5ft 11s 11 13 mph 1020.5mb 40f 40f
6:04 6ft 11s 13 16 mph 1020.2mb 40f 39f
5:04 5.5ft 11s 13 16 mph 1020.4mb 40f 39f
4:04 6ft 11s 13 16 mph 1020.6mb 40f 39f
3:04 5ft 11s 11 13 mph 1020.9mb 40f 39f
2:04 5.5ft 11s 9 11 mph 1021.4mb 40f 39f
1:04 5.5ft 8s 7 9 mph 1022.4mb 40f 38f
12:04 6ft 11s 9 13 mph 1023.3mb 40f 38f
vie 04/18 11:04 6ft 11s 7 9 mph 1024.4mb 40f 38f
10:04 6ft 8s 7
mph
1024.6mb 40f 38f
9:04 7ft 11s 7 9 mph 1025.1mb 40f 38f
8:04 6ft 8s 2 4 mph 1025.7mb 40f 38f
7:04 6.5ft 11s 7 9 mph 1026mb 40f 38f
6:04 6ft 8s 7 9 mph 1026.4mb 40f 38f
5:04 7ft 11s 7 9 mph 1027.6mb 40f 38f
4:04 5.5ft 11s 7
mph
1028.9mb 40f 38f
3:04 6ft 11s 7 9 mph 1029.7mb 40f 38f
2:04 5.5ft 8s 9 11 mph 1030.3mb 40f 38f
1:04 6ft 8s 9 11 mph 1030.7mb 40f 38f
12:04 6ft 11s 11 13 mph 1031.9mb 40f 38f
11:04 5.5ft 8s 9 13 mph 1033.7mb 40f 39f
10:04 6ft 11s 11 13 mph 1034.2mb 40f 38f
9:04 6ft 8s 16 20 mph 1033.1mb 40f 38f
8:04 5.5ft 8s 18 20 mph 1033.3mb 40f 38f
7:04 4.5ft 8s 18 22 mph 1032.7mb 40f 38f
6:04 5ft 8s 16 18 mph 1034.3mb 40f 38f
5:04 3.5ft 8s 11 16 mph 1035mb 40f 38f
4:04 4.5ft 8s 11 13 mph 1035.1mb 40f 38f
3:04 4.5ft 8s 11 16 mph 1035.2mb 40f 37f
2:04 4.5ft 8s 11 16 mph 1035.3mb 40f 37f
1:04 4.5ft 6s 11 16 mph 1036.1mb 40f 37f
12:04  -   -  13 16 mph 1037.1mb 40f 37f
jue 04/17 11:04 5.5ft 8s 13 16 mph 1038.2mb 40f 36f
10:04 5ft 6s 11 13 mph 1039.2mb 40f 36f
9:04 5.5ft 6s 11 13 mph 1039.6mb 40f 36f
8:04 5ft 6s 13 16 mph 1039.9mb 41f 36f
7:04 5ft 6s 11 13 mph 1040mb 40f 36f
6:04 5ft 6s 13 16 mph 1040.3mb 40f 36f
5:04 6ft 11s 13 16 mph 1040.7mb 41f 36f
4:04 5.5ft 11s 13 18 mph 1040.8mb 41f 36f
3:04 4.5ft 6s 16 18 mph 1040.9mb 41f 36f
2:04 6ft 6s 16 20 mph 1041.3mb 41f 36f
1:04 6ft 6s 16 20 mph 1041.5mb 40f 35f
12:04 5.5ft 6s 18 20 mph 1041.9mb 40f 35f
11:04 5ft 6s 18 22 mph 1042.2mb 40f 35f
10:04 6ft 6s 22 25 mph 1042mb 40f 34f
9:04 6ft 6s 22 27 mph 1041.6mb 40f 34f
8:04 5ft 5s 22 27 mph 1041.2mb 40f 34f
7:04 5ft 5s 22 27 mph 1040.4mb 40f 33f
6:04 6ft 11s 22 27 mph 1039.6mb 40f 33f